sensor_id;sensor_type;location;lat;lon;timestamp;pressure;altitude;pressure_sealevel;temperature
49785;BMP280;35679;38.732;-121.358;2023-02-28T00:00:22;100742.53;;;12.36
49785;BMP280;35679;38.732;-121.358;2023-02-28T00:03:12;100740.06;;;12.34
49785;BMP280;35679;38.732;-121.358;2023-02-28T00:06:03;100742.72;;;12.34
49785;BMP280;35679;38.732;-121.358;2023-02-28T00:08:54;100744.56;;;12.34
49785;BMP280;35679;38.732;-121.358;2023-02-28T00:11:48;100736.44;;;12.35
49785;BMP280;35679;38.732;-121.358;2023-02-28T00:14:54;100738.25;;;12.35
49785;BMP280;35679;38.732;-121.358;2023-02-28T00:18:01;100744.72;;;12.32
49785;BMP280;35679;38.732;-121.358;2023-02-28T00:21:02;100741.06;;;12.33
49785;BMP280;35679;38.732;-121.358;2023-02-28T00:23:52;100744.41;;;12.27
49785;BMP280;35679;38.732;-121.358;2023-02-28T00:26:41;100756.03;;;12.26
49785;BMP280;35679;38.732;-121.358;2023-02-28T00:29:31;100756.66;;;12.28
49785;BMP280;35679;38.732;-121.358;2023-02-28T00:32:21;100761.13;;;12.28
49785;BMP280;35679;38.732;-121.358;2023-02-28T00:35:11;100768.88;;;12.29
49785;BMP280;35679;38.732;-121.358;2023-02-28T00:38:01;100780.28;;;12.30
49785;BMP280;35679;38.732;-121.358;2023-02-28T00:40:51;100787.41;;;12.29
49785;BMP280;35679;38.732;-121.358;2023-02-28T00:43:41;100804.09;;;12.30
49785;BMP280;35679;38.732;-121.358;2023-02-28T00:46:31;100806.28;;;12.26
49785;BMP280;35679;38.732;-121.358;2023-02-28T00:49:20;100817.69;;;12.27
49785;BMP280;35679;38.732;-121.358;2023-02-28T00:52:12;100823.78;;;12.27
49785;BMP280;35679;38.732;-121.358;2023-02-28T00:55:14;100826.59;;;12.26
49785;BMP280;35679;38.732;-121.358;2023-02-28T00:58:04;100829.44;;;12.24
49785;BMP280;35679;38.732;-121.358;2023-02-28T01:00:54;100824.81;;;12.26
49785;BMP280;35679;38.732;-121.358;2023-02-28T01:03:43;100822.31;;;12.25
49785;BMP280;35679;38.732;-121.358;2023-02-28T01:06:34;100824.16;;;12.24
49785;BMP280;35679;38.732;-121.358;2023-02-28T01:09:23;100812.72;;;12.24
49785;BMP280;35679;38.732;-121.358;2023-02-28T01:12:13;100816.22;;;12.24
49785;BMP280;35679;38.732;-121.358;2023-02-28T01:15:02;100811.09;;;12.23
49785;BMP280;35679;38.732;-121.358;2023-02-28T01:17:52;100809.25;;;12.23
49785;BMP280;35679;38.732;-121.358;2023-02-28T01:20:42;100812.91;;;12.22
49785;BMP280;35679;38.732;-121.358;2023-02-28T01:23:31;100815.38;;;12.24
49785;BMP280;35679;38.732;-121.358;2023-02-28T01:26:22;100819.19;;;12.21
49785;BMP280;35679;38.732;-121.358;2023-02-28T01:29:12;100812.28;;;12.20
49785;BMP280;35679;38.732;-121.358;2023-02-28T01:32:02;100804.97;;;12.22
49785;BMP280;35679;38.732;-121.358;2023-02-28T01:34:55;100804.97;;;12.22
49785;BMP280;35679;38.732;-121.358;2023-02-28T01:37:44;100805.81;;;12.23
49785;BMP280;35679;38.732;-121.358;2023-02-28T01:40:34;100804.78;;;12.24
49785;BMP280;35679;38.732;-121.358;2023-02-28T01:43:29;100809.25;;;12.23
49785;BMP280;35679;38.732;-121.358;2023-02-28T01:46:19;100817.19;;;12.23
49785;BMP280;35679;38.732;-121.358;2023-02-28T01:49:13;100819.81;;;12.31
49785;BMP280;35679;38.732;-121.358;2023-02-28T01:52:04;100826.44;;;12.27
49785;BMP280;35679;38.732;-121.358;2023-02-28T01:54:55;100820.50;;;12.25
49785;BMP280;35679;38.732;-121.358;2023-02-28T01:57:52;100829.44;;;12.24
49785;BMP280;35679;38.732;-121.358;2023-02-28T02:00:44;100836.38;;;12.25
49785;BMP280;35679;38.732;-121.358;2023-02-28T02:03:35;100844.94;;;12.27
49785;BMP280;35679;38.732;-121.358;2023-02-28T02:06:29;100857.53;;;12.25
49785;BMP280;35679;38.732;-121.358;2023-02-28T02:09:19;100860.19;;;12.25
49785;BMP280;35679;38.732;-121.358;2023-02-28T02:12:45;100873.41;;;12.25
49785;BMP280;35679;38.732;-121.358;2023-02-28T02:28:57;100892.94;;;12.24
49785;BMP280;35679;38.732;-121.358;2023-02-28T02:42:16;100898.69;;;12.28
49785;BMP280;35679;38.732;-121.358;2023-02-28T02:44:52;100901.53;;;12.26
49785;BMP280;35679;38.732;-121.358;2023-02-28T02:47:46;100913.09;;;12.25
49785;BMP280;35679;38.732;-121.358;2023-02-28T02:50:43;100919.38;;;12.24
49785;BMP280;35679;38.732;-121.358;2023-02-28T02:53:41;100920.38;;;12.23
49785;BMP280;35679;38.732;-121.358;2023-02-28T02:56:32;100920.38;;;12.23
49785;BMP280;35679;38.732;-121.358;2023-02-28T02:59:23;100924.00;;;12.22
49785;BMP280;35679;38.732;-121.358;2023-02-28T03:02:14;100926.66;;;12.22
49785;BMP280;35679;38.732;-121.358;2023-02-28T03:05:12;100925.00;;;12.21
49785;BMP280;35679;38.732;-121.358;2023-02-28T03:08:04;100920.72;;;12.20
49785;BMP280;35679;38.732;-121.358;2023-02-28T03:10:59;100929.66;;;12.19
49785;BMP280;35679;38.732;-121.358;2023-02-28T03:23:37;100958.75;;;12.19
49785;BMP280;35679;38.732;-121.358;2023-02-28T03:26:28;100963.38;;;12.17
49785;BMP280;35679;38.732;-121.358;2023-02-28T03:32:22;100968.03;;;12.15
49785;BMP280;35679;38.732;-121.358;2023-02-28T03:35:32;100961.91;;;12.15
49785;BMP280;35679;38.732;-121.358;2023-02-28T03:38:37;100964.53;;;12.15
49785;BMP280;35679;38.732;-121.358;2023-02-28T03:41:58;100970.66;;;12.15
49785;BMP280;35679;38.732;-121.358;2023-02-28T03:45:02;100982.25;;;12.14
49785;BMP280;35679;38.732;-121.358;2023-02-28T03:48:06;100991.16;;;12.13
49785;BMP280;35679;38.732;-121.358;2023-02-28T03:51:00;100984.88;;;12.14
49785;BMP280;35679;38.732;-121.358;2023-02-28T03:53:54;100990.19;;;12.14
49785;BMP280;35679;38.732;-121.358;2023-02-28T03:56:51;100989.81;;;12.17
49785;BMP280;35679;38.732;-121.358;2023-02-28T03:59:49;100985.53;;;12.16
49785;BMP280;35679;38.732;-121.358;2023-02-28T04:02:43;100989.19;;;12.15
49785;BMP280;35679;38.732;-121.358;2023-02-28T04:05:33;100990.00;;;12.16
49785;BMP280;35679;38.732;-121.358;2023-02-28T04:08:33;101003.41;;;12.14
49785;BMP280;35679;38.732;-121.358;2023-02-28T04:11:38;101010.50;;;12.14
49785;BMP280;35679;38.732;-121.358;2023-02-28T04:14:28;101019.44;;;12.13
49785;BMP280;35679;38.732;-121.358;2023-02-28T04:17:17;101022.91;;;12.13
49785;BMP280;35679;38.732;-121.358;2023-02-28T04:20:07;101024.88;;;12.11
49785;BMP280;35679;38.732;-121.358;2023-02-28T04:22:58;101024.88;;;12.11
49785;BMP280;35679;38.732;-121.358;2023-02-28T04:25:47;101024.56;;;12.14
49785;BMP280;35679;38.732;-121.358;2023-02-28T04:28:38;101028.19;;;12.13
49785;BMP280;35679;38.732;-121.358;2023-02-28T04:31:27;101032.19;;;12.09
49785;BMP280;35679;38.732;-121.358;2023-02-28T04:34:17;101042.75;;;12.09
49785;BMP280;35679;38.732;-121.358;2023-02-28T04:37:07;101033.97;;;12.09
49785;BMP280;35679;38.732;-121.358;2023-02-28T04:40:01;101034.16;;;12.07
49785;BMP280;35679;38.732;-121.358;2023-02-28T04:42:51;101052.84;;;12.06
49785;BMP280;35679;38.732;-121.358;2023-02-28T04:45:40;101052.66;;;12.07
49785;BMP280;35679;38.732;-121.358;2023-02-28T04:48:33;101044.72;;;12.07
49785;BMP280;35679;38.732;-121.358;2023-02-28T04:51:23;101057.16;;;12.07
49785;BMP280;35679;38.732;-121.358;2023-02-28T04:54:12;101064.25;;;12.06
49785;BMP280;35679;38.732;-121.358;2023-02-28T04:57:02;101068.72;;;12.06
49785;BMP280;35679;38.732;-121.358;2023-02-28T04:59:53;101072.34;;;12.05
49785;BMP280;35679;38.732;-121.358;2023-02-28T05:02:42;101071.72;;;12.03
49785;BMP280;35679;38.732;-121.358;2023-02-28T05:05:32;101084.94;;;12.03
49785;BMP280;35679;38.732;-121.358;2023-02-28T05:08:21;101084.94;;;12.03
49785;BMP280;35679;38.732;-121.358;2023-02-28T05:11:20;101084.94;;;12.03
49785;BMP280;35679;38.732;-121.358;2023-02-28T05:14:13;101096.63;;;12.00
49785;BMP280;35679;38.732;-121.358;2023-02-28T05:17:02;101092.38;;;11.99
49785;BMP280;35679;38.732;-121.358;2023-02-28T05:19:52;101091.34;;;12.00
49785;BMP280;35679;38.732;-121.358;2023-02-28T05:22:53;101090.53;;;12.00
49785;BMP280;35679;38.732;-121.358;2023-02-28T05:25:42;101099.28;;;12.00
49785;BMP280;35679;38.732;-121.358;2023-02-28T05:28:31;101101.94;;;12.00
49785;BMP280;35679;38.732;-121.358;2023-02-28T05:31:22;101091.69;;;11.97
49785;BMP280;35679;38.732;-121.358;2023-02-28T05:34:11;101096.16;;;11.97
49785;BMP280;35679;38.732;-121.358;2023-02-28T05:37:02;101097.16;;;11.96
49785;BMP280;35679;38.732;-121.358;2023-02-28T05:39:53;101092.69;;;11.96
49785;BMP280;35679;38.732;-121.358;2023-02-28T05:42:43;101090.03;;;11.96
49785;BMP280;35679;38.732;-121.358;2023-02-28T05:45:33;101096.31;;;11.95
49785;BMP280;35679;38.732;-121.358;2023-02-28T05:48:23;101105.91;;;11.96
49785;BMP280;35679;38.732;-121.358;2023-02-28T05:51:12;101110.56;;;11.94
49785;BMP280;35679;38.732;-121.358;2023-02-28T05:54:02;101116.66;;;11.95
49785;BMP280;35679;38.732;-121.358;2023-02-28T05:56:51;101122.75;;;11.95
49785;BMP280;35679;38.732;-121.358;2023-02-28T05:59:41;101122.13;;;11.93
49785;BMP280;35679;38.732;-121.358;2023-02-28T06:02:30;101124.09;;;11.91
49785;BMP280;35679;38.732;-121.358;2023-02-28T06:05:20;101134.66;;;11.91
49785;BMP280;35679;38.732;-121.358;2023-02-28T06:08:09;101137.97;;;11.93
49785;BMP280;35679;38.732;-121.358;2023-02-28T06:11:03;101135.50;;;11.92
49785;BMP280;35679;38.732;-121.358;2023-02-28T06:13:56;101139.13;;;11.91
49785;BMP280;35679;38.732;-121.358;2023-02-28T06:16:46;101155.00;;;11.91
49785;BMP280;35679;38.732;-121.358;2023-02-28T06:19:39;101146.91;;;11.92
49785;BMP280;35679;38.732;-121.358;2023-02-28T06:22:29;101148.88;;;11.90
49785;BMP280;35679;38.732;-121.358;2023-02-28T06:25:20;101152.34;;;11.91
49785;BMP280;35679;38.732;-121.358;2023-02-28T06:28:09;101155.00;;;11.91
49785;BMP280;35679;38.732;-121.358;2023-02-28T06:30:58;101146.91;;;11.92
49785;BMP280;35679;38.732;-121.358;2023-02-28T06:33:49;101151.50;;;11.90
49785;BMP280;35679;38.732;-121.358;2023-02-28T06:36:40;101163.75;;;11.91
49785;BMP280;35679;38.732;-121.358;2023-02-28T06:39:30;101160.28;;;11.91
49785;BMP280;35679;38.732;-121.358;2023-02-28T06:42:20;101170.03;;;11.90
49785;BMP280;35679;38.732;-121.358;2023-02-28T06:45:11;101169.38;;;11.88
49785;BMP280;35679;38.732;-121.358;2023-02-28T06:48:00;101175.66;;;11.87
49785;BMP280;35679;38.732;-121.358;2023-02-28T06:50:50;101177.47;;;11.87
49785;BMP280;35679;38.732;-121.358;2023-02-28T06:53:39;101174.00;;;11.86
49785;BMP280;35679;38.732;-121.358;2023-02-28T06:56:29;101184.41;;;11.88
49785;BMP280;35679;38.732;-121.358;2023-02-28T06:59:19;101194.97;;;11.88
49785;BMP280;35679;38.732;-121.358;2023-02-28T07:02:08;101194.16;;;11.87
49785;BMP280;35679;38.732;-121.358;2023-02-28T07:04:58;101190.53;;;11.88
49785;BMP280;35679;38.732;-121.358;2023-02-28T07:07:47;101192.50;;;11.86
49785;BMP280;35679;38.732;-121.358;2023-02-28T07:10:38;101192.50;;;11.86
49785;BMP280;35679;38.732;-121.358;2023-02-28T07:13:28;101190.03;;;11.85
49785;BMP280;35679;38.732;-121.358;2023-02-28T07:16:18;101194.50;;;11.84
49785;BMP280;35679;38.732;-121.358;2023-02-28T07:19:08;101184.06;;;11.83
49785;BMP280;35679;38.732;-121.358;2023-02-28T07:21:57;101185.91;;;11.82
49785;BMP280;35679;38.732;-121.358;2023-02-28T07:24:47;101193.81;;;11.82
49785;BMP280;35679;38.732;-121.358;2023-02-28T07:27:37;101190.38;;;11.82
49785;BMP280;35679;38.732;-121.358;2023-02-28T07:30:28;101187.22;;;11.78
49785;BMP280;35679;38.732;-121.358;2023-02-28T07:33:18;101184.72;;;11.77
49785;BMP280;35679;38.732;-121.358;2023-02-28T07:36:11;101186.53;;;11.77
49785;BMP280;35679;38.732;-121.358;2023-02-28T07:39:04;101184.06;;;11.75
49785;BMP280;35679;38.732;-121.358;2023-02-28T07:41:53;101187.88;;;11.73
49785;BMP280;35679;38.732;-121.358;2023-02-28T07:44:46;101192.31;;;11.72
49785;BMP280;35679;38.732;-121.358;2023-02-28T07:47:36;101194.13;;;11.72
49785;BMP280;35679;38.732;-121.358;2023-02-28T07:50:25;101188.16;;;11.70
49785;BMP280;35679;38.732;-121.358;2023-02-28T07:53:21;101192.47;;;11.71
49785;BMP280;35679;38.732;-121.358;2023-02-28T07:56:11;101194.47;;;11.69
49785;BMP280;35679;38.732;-121.358;2023-02-28T07:59:00;101192.81;;;11.68
49785;BMP280;35679;38.732;-121.358;2023-02-28T08:01:50;101189.31;;;11.67
49785;BMP280;35679;38.732;-121.358;2023-02-28T08:04:40;101194.59;;;11.67
49785;BMP280;35679;38.732;-121.358;2023-02-28T08:07:30;101191.31;;;11.65
49785;BMP280;35679;38.732;-121.358;2023-02-28T08:10:19;101194.59;;;11.67
49785;BMP280;35679;38.732;-121.358;2023-02-28T08:13:08;101199.41;;;11.64
49785;BMP280;35679;38.732;-121.358;2023-02-28T08:15:58;101199.25;;;11.65
49785;BMP280;35679;38.732;-121.358;2023-02-28T08:18:52;101210.00;;;11.64
49785;BMP280;35679;38.732;-121.358;2023-02-28T08:21:42;101217.06;;;11.63
49785;BMP280;35679;38.732;-121.358;2023-02-28T08:24:31;101208.50;;;11.61
49785;BMP280;35679;38.732;-121.358;2023-02-28T08:27:22;101206.84;;;11.60
49785;BMP280;35679;38.732;-121.358;2023-02-28T08:30:12;101212.13;;;11.60
49785;BMP280;35679;38.732;-121.358;2023-02-28T08:33:05;101213.94;;;11.60
49785;BMP280;35679;38.732;-121.358;2023-02-28T08:35:55;101213.94;;;11.60
49785;BMP280;35679;38.732;-121.358;2023-02-28T08:38:44;101206.16;;;11.58
49785;BMP280;35679;38.732;-121.358;2023-02-28T08:41:35;101215.91;;;11.58
49785;BMP280;35679;38.732;-121.358;2023-02-28T08:44:24;101209.66;;;11.59
49785;BMP280;35679;38.732;-121.358;2023-02-28T08:47:14;101206.16;;;11.58
49785;BMP280;35679;38.732;-121.358;2023-02-28T08:50:04;101220.22;;;11.59
49785;BMP280;35679;38.732;-121.358;2023-02-28T08:52:55;101210.94;;;11.55
49785;BMP280;35679;38.732;-121.358;2023-02-28T08:55:44;101210.94;;;11.55
49785;BMP280;35679;38.732;-121.358;2023-02-28T08:58:34;101214.56;;;11.54
49785;BMP280;35679;38.732;-121.358;2023-02-28T09:01:26;101209.28;;;11.54
49785;BMP280;35679;38.732;-121.358;2023-02-28T09:04:17;101209.97;;;11.56
49785;BMP280;35679;38.732;-121.358;2023-02-28T09:07:08;101207.47;;;11.54
49785;BMP280;35679;38.732;-121.358;2023-02-28T09:09:57;101202.38;;;11.53
49785;BMP280;35679;38.732;-121.358;2023-02-28T09:12:46;101213.59;;;11.55
49785;BMP280;35679;38.732;-121.358;2023-02-28T09:15:39;101212.94;;;11.53
49785;BMP280;35679;38.732;-121.358;2023-02-28T09:18:29;101220.19;;;11.51
49785;BMP280;35679;38.732;-121.358;2023-02-28T09:21:19;101221.84;;;11.52
49785;BMP280;35679;38.732;-121.358;2023-02-28T09:24:09;101216.84;;;11.49
49785;BMP280;35679;38.732;-121.358;2023-02-28T09:27:00;101221.13;;;11.50
49785;BMP280;35679;38.732;-121.358;2023-02-28T09:29:52;101215.03;;;11.49
49785;BMP280;35679;38.732;-121.358;2023-02-28T09:32:41;101210.72;;;11.48
49785;BMP280;35679;38.732;-121.358;2023-02-28T09:35:31;101201.16;;;11.47
49785;BMP280;35679;38.732;-121.358;2023-02-28T09:38:20;101190.41;;;11.49
49785;BMP280;35679;38.732;-121.358;2023-02-28T09:41:14;101192.22;;;11.48
49785;BMP280;35679;38.732;-121.358;2023-02-28T09:44:05;101195.34;;;11.44
49785;BMP280;35679;38.732;-121.358;2023-02-28T09:47:05;101189.09;;;11.45
49785;BMP280;35679;38.732;-121.358;2023-02-28T09:49:59;101188.09;;;11.46
49785;BMP280;35679;38.732;-121.358;2023-02-28T09:52:53;101182.97;;;11.44
49785;BMP280;35679;38.732;-121.358;2023-02-28T09:55:48;101177.03;;;11.42
49785;BMP280;35679;38.732;-121.358;2023-02-28T09:58:45;101178.84;;;11.42
49785;BMP280;35679;38.732;-121.358;2023-02-28T10:05:16;101174.38;;;11.42
49785;BMP280;35679;38.732;-121.358;2023-02-28T10:08:16;101163.97;;;11.41
49785;BMP280;35679;38.732;-121.358;2023-02-28T10:11:07;101173.56;;;11.42
49785;BMP280;35679;38.732;-121.358;2023-02-28T10:17:26;101174.88;;;11.38
49785;BMP280;35679;38.732;-121.358;2023-02-28T10:20:22;101178.00;;;11.41
49785;BMP280;35679;38.732;-121.358;2023-02-28T10:23:25;101185.28;;;11.39
49785;BMP280;35679;38.732;-121.358;2023-02-28T10:26:19;101173.88;;;11.39
49785;BMP280;35679;38.732;-121.358;2023-02-28T10:29:09;101171.22;;;11.39
49785;BMP280;35679;38.732;-121.358;2023-02-28T10:32:01;101163.31;;;11.39
49785;BMP280;35679;38.732;-121.358;2023-02-28T10:34:57;101152.59;;;11.40
49785;BMP280;35679;38.732;-121.358;2023-02-28T10:37:50;101164.16;;;11.39
49785;BMP280;35679;38.732;-121.358;2023-02-28T10:40:39;101167.78;;;11.38
49785;BMP280;35679;38.732;-121.358;2023-02-28T10:43:29;101166.44;;;11.34
49785;BMP280;35679;38.732;-121.358;2023-02-28T10:46:19;101163.63;;;11.36
49785;BMP280;35679;38.732;-121.358;2023-02-28T10:49:23;101165.47;;;11.35
49785;BMP280;35679;38.732;-121.358;2023-02-28T10:52:13;101167.59;;;11.32
49785;BMP280;35679;38.732;-121.358;2023-02-28T10:58:23;101161.97;;;11.35
49785;BMP280;35679;38.732;-121.358;2023-02-28T11:01:19;101154.72;;;11.37
49785;BMP280;35679;38.732;-121.358;2023-02-28T11:07:40;101151.41;;;11.35
49785;BMP280;35679;38.732;-121.358;2023-02-28T11:10:43;101154.22;;;11.33
49785;BMP280;35679;38.732;-121.358;2023-02-28T11:13:35;101145.47;;;11.33
49785;BMP280;35679;38.732;-121.358;2023-02-28T11:16:35;101142.00;;;11.32
49785;BMP280;35679;38.732;-121.358;2023-02-28T11:19:34;101128.78;;;11.32
49785;BMP280;35679;38.732;-121.358;2023-02-28T11:22:29;101129.63;;;11.33
49785;BMP280;35679;38.732;-121.358;2023-02-28T11:25:26;101131.59;;;11.31
49785;BMP280;35679;38.732;-121.358;2023-02-28T11:28:39;101138.69;;;11.30
49785;BMP280;35679;38.732;-121.358;2023-02-28T11:31:29;101134.41;;;11.29
49785;BMP280;35679;38.732;-121.358;2023-02-28T11:34:25;101139.53;;;11.31
49785;BMP280;35679;38.732;-121.358;2023-02-28T11:37:18;101139.00;;;11.27
49785;BMP280;35679;38.732;-121.358;2023-02-28T11:40:18;101140.84;;;11.27
49785;BMP280;35679;38.732;-121.358;2023-02-28T11:43:35;101138.69;;;11.30
49785;BMP280;35679;38.732;-121.358;2023-02-28T11:49:30;101136.19;;;11.29
49785;BMP280;35679;38.732;-121.358;2023-02-28T11:56:08;101129.59;;;11.25
49785;BMP280;35679;38.732;-121.358;2023-02-28T12:06:23;101128.63;;;11.26
49785;BMP280;35679;38.732;-121.358;2023-02-28T12:14:49;101124.31;;;11.25
49785;BMP280;35679;38.732;-121.358;2023-02-28T12:18:34;101112.09;;;11.24
49785;BMP280;35679;38.732;-121.358;2023-02-28T12:21:11;101112.09;;;11.24
49785;BMP280;35679;38.732;-121.358;2023-02-28T12:27:25;101085.84;;;11.22
49785;BMP280;35679;38.732;-121.358;2023-02-28T12:33:16;101086.00;;;11.21
49785;BMP280;35679;38.732;-121.358;2023-02-28T12:36:11;101083.38;;;11.21
49785;BMP280;35679;38.732;-121.358;2023-02-28T12:39:20;101077.09;;;11.22
49785;BMP280;35679;38.732;-121.358;2023-02-28T12:42:33;101083.38;;;11.21
49785;BMP280;35679;38.732;-121.358;2023-02-28T12:45:27;101080.41;;;11.24
49785;BMP280;35679;38.732;-121.358;2023-02-28T12:48:28;101072.81;;;11.21
49785;BMP280;35679;38.732;-121.358;2023-02-28T12:51:20;101068.50;;;11.20
49785;BMP280;35679;38.732;-121.358;2023-02-28T13:00:22;101080.91;;;11.19
49785;BMP280;35679;38.732;-121.358;2023-02-28T13:09:56;101071.81;;;11.22
49785;BMP280;35679;38.732;-121.358;2023-02-28T13:12:50;101057.44;;;11.16
49785;BMP280;35679;38.732;-121.358;2023-02-28T13:15:40;101044.91;;;11.18
49785;BMP280;35679;38.732;-121.358;2023-02-28T13:18:37;101035.16;;;11.19
49785;BMP280;35679;38.732;-121.358;2023-02-28T13:21:29;101020.16;;;11.19
49785;BMP280;35679;38.732;-121.358;2023-02-28T13:27:38;101020.28;;;11.18
49785;BMP280;35679;38.732;-121.358;2023-02-28T13:36:45;100999.84;;;11.20
49785;BMP280;35679;38.732;-121.358;2023-02-28T13:45:33;101004.63;;;11.16
49785;BMP280;35679;38.732;-121.358;2023-02-28T13:48:28;100996.53;;;11.18
49785;BMP280;35679;38.732;-121.358;2023-02-28T13:51:48;100991.25;;;11.18
49785;BMP280;35679;38.732;-121.358;2023-02-28T14:07:01;100986.97;;;11.17
49785;BMP280;35679;38.732;-121.358;2023-02-28T14:10:08;100983.50;;;11.16
49785;BMP280;35679;38.732;-121.358;2023-02-28T14:13:43;100977.41;;;11.16
49785;BMP280;35679;38.732;-121.358;2023-02-28T14:16:45;100974.09;;;11.14
49785;BMP280;35679;38.732;-121.358;2023-02-28T14:19:37;100974.09;;;11.14
49785;BMP280;35679;38.732;-121.358;2023-02-28T14:25:54;100944.06;;;11.15
49785;BMP280;35679;38.732;-121.358;2023-02-28T14:32:47;100950.16;;;11.15
49785;BMP280;35679;38.732;-121.358;2023-02-28T14:38:43;100941.59;;;11.13
49785;BMP280;35679;38.732;-121.358;2023-02-28T14:41:40;100942.41;;;11.14
49785;BMP280;35679;38.732;-121.358;2023-02-28T14:44:35;100937.28;;;11.12
49785;BMP280;35679;38.732;-121.358;2023-02-28T14:47:37;100932.50;;;11.16
49785;BMP280;35679;38.732;-121.358;2023-02-28T14:50:35;100926.56;;;11.14
49785;BMP280;35679;38.732;-121.358;2023-02-28T14:53:36;100931.84;;;11.14
49785;BMP280;35679;38.732;-121.358;2023-02-28T14:56:39;100923.91;;;11.14
49785;BMP280;35679;38.732;-121.358;2023-02-28T14:59:31;100940.44;;;11.16
49785;BMP280;35679;38.732;-121.358;2023-02-28T15:02:24;100938.78;;;11.15
49785;BMP280;35679;38.732;-121.358;2023-02-28T15:05:19;100925.75;;;11.13
49785;BMP280;35679;38.732;-121.358;2023-02-28T15:08:16;100927.53;;;11.13
49785;BMP280;35679;38.732;-121.358;2023-02-28T15:11:14;100928.56;;;11.12
49785;BMP280;35679;38.732;-121.358;2023-02-28T15:14:04;100919.63;;;11.13
49785;BMP280;35679;38.732;-121.358;2023-02-28T15:16:59;100924.91;;;11.13
49785;BMP280;35679;38.732;-121.358;2023-02-28T15:19:52;100928.22;;;11.15
49785;BMP280;35679;38.732;-121.358;2023-02-28T15:22:42;100929.38;;;11.12
49785;BMP280;35679;38.732;-121.358;2023-02-28T15:25:32;100916.34;;;11.11
49785;BMP280;35679;38.732;-121.358;2023-02-28T15:28:22;100916.00;;;11.14
49785;BMP280;35679;38.732;-121.358;2023-02-28T15:34:28;100920.28;;;11.15
49785;BMP280;35679;38.732;-121.358;2023-02-28T15:40:29;100930.19;;;11.13
49785;BMP280;35679;38.732;-121.358;2023-02-28T15:43:33;100926.56;;;11.14
49785;BMP280;35679;38.732;-121.358;2023-02-28T15:46:23;100927.41;;;11.14
49785;BMP280;35679;38.732;-121.358;2023-02-28T15:49:18;100922.94;;;11.15
49785;BMP280;35679;38.732;-121.358;2023-02-28T15:52:13;100922.13;;;11.14
49785;BMP280;35679;38.732;-121.358;2023-02-28T15:55:24;100915.81;;;11.15
49785;BMP280;35679;38.732;-121.358;2023-02-28T15:58:21;100911.56;;;11.14
49785;BMP280;35679;38.732;-121.358;2023-02-28T16:01:44;100929.38;;;11.12
49785;BMP280;35679;38.732;-121.358;2023-02-28T16:04:34;100923.91;;;11.14
49785;BMP280;35679;38.732;-121.358;2023-02-28T16:07:24;100927.22;;;11.16
49785;BMP280;35679;38.732;-121.358;2023-02-28T16:10:14;100925.41;;;11.16
49785;BMP280;35679;38.732;-121.358;2023-02-28T16:13:03;100921.78;;;11.17
49785;BMP280;35679;38.732;-121.358;2023-02-28T16:15:53;100913.19;;;11.15
49785;BMP280;35679;38.732;-121.358;2023-02-28T16:18:43;100912.53;;;11.13
49785;BMP280;35679;38.732;-121.358;2023-02-28T16:21:32;100928.22;;;11.15
49785;BMP280;35679;38.732;-121.358;2023-02-28T16:24:21;100915.19;;;11.13
49785;BMP280;35679;38.732;-121.358;2023-02-28T16:27:17;100920.28;;;11.15
49785;BMP280;35679;38.732;-121.358;2023-02-28T16:30:16;100912.19;;;11.16
49785;BMP280;35679;38.732;-121.358;2023-02-28T16:33:08;100899.16;;;11.15
49785;BMP280;35679;38.732;-121.358;2023-02-28T16:35:58;100906.91;;;11.16
49785;BMP280;35679;38.732;-121.358;2023-02-28T16:38:47;100899.16;;;11.15
49785;BMP280;35679;38.732;-121.358;2023-02-28T16:41:36;100901.00;;;11.14
49785;BMP280;35679;38.732;-121.358;2023-02-28T16:44:33;100899.97;;;11.15
49785;BMP280;35679;38.732;-121.358;2023-02-28T16:47:24;100907.09;;;11.15
49785;BMP280;35679;38.732;-121.358;2023-02-28T16:50:19;100895.53;;;11.16
49785;BMP280;35679;38.732;-121.358;2023-02-28T16:53:10;100906.75;;;11.18
49785;BMP280;35679;38.732;-121.358;2023-02-28T16:56:00;100888.75;;;11.21
49785;BMP280;35679;38.732;-121.358;2023-02-28T16:58:57;100907.41;;;11.20
49785;BMP280;35679;38.732;-121.358;2023-02-28T17:01:48;100913.38;;;11.22
49785;BMP280;35679;38.732;-121.358;2023-02-28T17:04:38;100929.22;;;11.22
49785;BMP280;35679;38.732;-121.358;2023-02-28T17:07:27;100923.09;;;11.21
49785;BMP280;35679;38.732;-121.358;2023-02-28T17:10:18;100925.91;;;11.20
49785;BMP280;35679;38.732;-121.358;2023-02-28T17:13:08;100911.72;;;11.21
49785;BMP280;35679;38.732;-121.358;2023-02-28T17:16:02;100936.28;;;11.21
49785;BMP280;35679;38.732;-121.358;2023-02-28T17:18:54;100926.72;;;11.20
49785;BMP280;35679;38.732;-121.358;2023-02-28T17:21:44;100926.88;;;11.19
49785;BMP280;35679;38.732;-121.358;2023-02-28T17:24:33;100925.09;;;11.19
49785;BMP280;35679;38.732;-121.358;2023-02-28T17:27:22;100940.59;;;11.22
49785;BMP280;35679;38.732;-121.358;2023-02-28T17:30:16;100939.09;;;11.20
49785;BMP280;35679;38.732;-121.358;2023-02-28T17:33:05;100938.13;;;11.21
49785;BMP280;35679;38.732;-121.358;2023-02-28T17:35:55;100939.78;;;11.22
49785;BMP280;35679;38.732;-121.358;2023-02-28T17:38:44;100948.69;;;11.21
49785;BMP280;35679;38.732;-121.358;2023-02-28T17:41:33;100946.84;;;11.21
49785;BMP280;35679;38.732;-121.358;2023-02-28T17:44:23;100954.78;;;11.21
49785;BMP280;35679;38.732;-121.358;2023-02-28T17:47:13;100942.41;;;11.22
49785;BMP280;35679;38.732;-121.358;2023-02-28T17:50:03;100939.78;;;11.22
49785;BMP280;35679;38.732;-121.358;2023-02-28T17:52:52;100951.31;;;11.21
49785;BMP280;35679;38.732;-121.358;2023-02-28T17:55:41;100938.13;;;11.21